createdAt,value
2022-11-15T00:00:30.476Z,15.45
2022-11-15T00:02:57.091Z,16.30
2022-11-15T00:05:23.517Z,17.20
2022-11-15T00:07:55.782Z,16.17
2022-11-15T00:10:22.678Z,16.70
2022-11-15T00:12:49.073Z,17.85
2022-11-15T00:15:15.469Z,17.02
2022-11-15T00:17:41.937Z,17.50
2022-11-15T00:20:08.620Z,16.35
2022-11-15T00:22:35.307Z,16.42
2022-11-15T00:25:01.755Z,17.80
2022-11-15T00:27:28.405Z,16.55
2022-11-15T00:29:54.844Z,17.52
2022-11-15T00:32:21.239Z,17.13
2022-11-15T00:34:47.566Z,16.92
2022-11-15T00:37:13.934Z,17.67
2022-11-15T00:39:40.275Z,16.75
2022-11-15T00:42:06.701Z,15.93
2022-11-15T00:44:33.147Z,15.88
2022-11-15T00:46:59.488Z,16.50
2022-11-15T00:49:25.935Z,15.15
2022-11-15T00:51:52.516Z,16.02
2022-11-15T00:54:18.865Z,15.13
2022-11-15T00:56:45.196Z,15.23
2022-11-15T00:59:11.558Z,15.18
2022-11-15T01:01:37.967Z,15.00
2022-11-15T01:04:04.437Z,14.23
2022-11-15T01:06:30.833Z,14.13
2022-11-15T01:08:57.178Z,14.48
2022-11-15T01:11:23.630Z,13.15
2022-11-15T01:13:50.064Z,14.00
2022-11-15T01:16:18.611Z,13.45
2022-11-15T01:18:48.065Z,13.80
2022-11-15T01:21:16.289Z,13.07
2022-11-15T01:23:42.708Z,14.70
2022-11-15T01:26:11.558Z,14.02
2022-11-15T01:28:38.585Z,14.25
2022-11-15T01:31:06.430Z,14.63
2022-11-15T01:33:34.862Z,13.52
2022-11-15T01:36:04.499Z,12.57
2022-11-15T01:38:30.865Z,13.50
2022-11-15T01:40:57.308Z,11.90
2022-11-15T01:43:24.697Z,12.85
2022-11-15T01:45:57.453Z,13.10
2022-11-15T01:48:26.707Z,12.90
2022-11-15T01:50:53.557Z,12.48
2022-11-15T01:53:21.327Z,12.88
2022-11-15T01:55:47.712Z,13.80
2022-11-15T01:58:14.142Z,12.98
2022-11-15T02:00:40.993Z,12.45
2022-11-15T02:03:07.462Z,12.00
2022-11-15T02:05:34.506Z,12.52
2022-11-15T02:08:01.152Z,12.35
2022-11-15T02:10:28.467Z,11.52
2022-11-15T02:12:55.845Z,12.50
2022-11-15T02:15:22.305Z,11.65
2022-11-15T02:18:12.136Z,11.70
2022-11-15T02:20:53.619Z,11.32
2022-11-15T02:23:19.983Z,12.07
2022-11-15T02:26:01.705Z,11.68
2022-11-15T02:28:34.580Z,11.80
2022-11-15T02:31:16.289Z,12.85
2022-11-15T02:33:42.618Z,12.25
2022-11-15T02:36:24.302Z,12.48
2022-11-15T02:39:02.832Z,11.30
2022-11-15T02:41:39.785Z,12.20
2022-11-15T02:44:15.193Z,11.68
2022-11-15T02:47:00.423Z,10.85
2022-11-15T02:49:28.443Z,11.40
2022-11-15T02:51:55.809Z,11.50
2022-11-15T02:54:26.714Z,11.55
2022-11-15T02:56:59.267Z,11.32
2022-11-15T02:59:36.389Z,10.00
2022-11-15T03:02:05.684Z,10.95
2022-11-15T03:04:42.465Z,11.77
2022-11-15T03:07:13.225Z,10.57
2022-11-15T03:10:03.107Z,10.43
2022-11-15T03:12:33.377Z,11.18
2022-11-15T03:15:25.436Z,10.50
2022-11-15T03:18:00.118Z,10.85
2022-11-15T03:20:28.245Z,10.73
2022-11-15T03:22:55.637Z,11.25
2022-11-15T03:25:23.432Z,11.43
2022-11-15T03:27:52.374Z,12.10
2022-11-15T03:30:19.279Z,12.13
2022-11-15T03:32:48.498Z,11.32
2022-11-15T03:35:19.174Z,11.88
2022-11-15T03:37:49.944Z,12.23
2022-11-15T03:40:17.576Z,12.73
2022-11-15T03:42:47.046Z,11.98
2022-11-15T03:45:22.591Z,11.88
2022-11-15T03:50:20.734Z,10.25
2022-11-15T03:52:48.216Z,11.43
2022-11-15T03:55:16.633Z,10.80
2022-11-15T03:57:43.202Z,10.82
2022-11-15T04:00:10.019Z,11.23
2022-11-15T04:02:36.379Z,11.20
2022-11-15T04:05:02.896Z,10.18
2022-11-15T04:07:29.364Z,10.60
2022-11-15T04:10:05.660Z,11.00
2022-11-15T04:12:33.062Z,10.85
2022-11-15T04:15:08.380Z,10.73
2022-11-15T04:17:51.525Z,11.93
2022-11-15T04:20:39.136Z,11.73
2022-11-15T04:23:25.923Z,11.48
2022-11-15T04:25:53.909Z,11.82
2022-11-15T04:28:20.383Z,11.65
2022-11-15T04:30:46.781Z,11.52
2022-11-15T04:33:13.198Z,11.52
2022-11-15T04:35:39.577Z,11.75
2022-11-15T04:38:07.055Z,11.00
2022-11-15T04:40:33.619Z,11.13
2022-11-15T04:43:03.806Z,11.73
2022-11-15T04:45:30.603Z,11.57
2022-11-15T04:47:56.978Z,10.23
2022-11-15T04:50:23.333Z,10.82
2022-11-15T04:52:53.715Z,10.70
2022-11-15T04:55:20.230Z,9.18
2022-11-15T04:57:46.591Z,10.02
2022-11-15T05:00:14.324Z,10.23
2022-11-15T05:02:59.583Z,10.02
2022-11-15T05:05:26.034Z,9.95
2022-11-15T05:07:52.416Z,9.80
2022-11-15T05:10:18.802Z,9.73
2022-11-15T05:12:45.178Z,10.35
2022-11-15T05:15:11.700Z,9.25
2022-11-15T05:17:38.039Z,8.70
2022-11-15T05:20:04.533Z,9.55
2022-11-15T05:22:31.145Z,9.75
2022-11-15T05:24:57.539Z,11.20
2022-11-15T05:27:23.940Z,9.98
2022-11-15T05:29:50.266Z,9.73
2022-11-15T05:32:17.065Z,9.07
2022-11-15T05:34:43.586Z,8.60
2022-11-15T05:37:10.098Z,8.95
2022-11-15T05:39:36.539Z,8.73
2022-11-15T05:42:06.110Z,8.85
2022-11-15T05:44:32.969Z,8.48
2022-11-15T05:46:59.461Z,8.25
2022-11-15T05:49:32.642Z,8.50
2022-11-15T05:51:59.074Z,9.00
2022-11-15T05:54:25.828Z,9.82
2022-11-15T05:56:52.643Z,9.00
2022-11-15T05:59:19.701Z,8.30
2022-11-15T06:01:46.367Z,8.65
2022-11-15T06:04:12.779Z,8.15
2022-11-15T06:06:39.388Z,8.48
2022-11-15T06:09:05.818Z,8.65
2022-11-15T06:11:32.159Z,7.88
2022-11-15T06:13:58.470Z,7.15
2022-11-15T06:16:24.861Z,7.70
2022-11-15T06:18:51.224Z,7.75
2022-11-15T06:21:17.577Z,8.38
2022-11-15T06:23:43.895Z,8.02
2022-11-15T06:26:10.220Z,8.80
2022-11-15T06:28:36.678Z,7.97
2022-11-15T06:31:12.395Z,7.60
2022-11-15T06:33:39.615Z,7.63
2022-11-15T06:36:07.380Z,8.00
2022-11-15T06:38:33.997Z,7.70
2022-11-15T06:41:07.559Z,7.20
2022-11-15T06:43:34.734Z,6.35
2022-11-15T06:46:02.031Z,7.13
2022-11-15T06:48:28.828Z,7.00
2022-11-15T06:50:55.824Z,6.97
2022-11-15T06:53:22.492Z,7.05
2022-11-15T06:55:53.416Z,7.25
2022-11-15T06:58:21.922Z,7.40
2022-11-15T07:00:48.357Z,7.72
2022-11-15T07:03:14.886Z,7.10
2022-11-15T07:05:41.313Z,7.32
2022-11-15T07:08:07.751Z,6.72
2022-11-15T07:10:34.183Z,7.20
2022-11-15T07:13:00.523Z,6.65
2022-11-15T07:15:27.178Z,7.60
2022-11-15T07:17:53.605Z,6.85
2022-11-15T07:20:20.032Z,7.72
2022-11-15T07:22:46.419Z,7.50
2022-11-15T07:25:12.780Z,7.35
2022-11-15T07:27:39.211Z,7.13
2022-11-15T07:30:06.030Z,7.18
2022-11-15T07:32:32.462Z,7.30
2022-11-15T07:34:58.846Z,7.30
2022-11-15T07:37:25.195Z,7.65
2022-11-15T07:39:51.619Z,9.85
2022-11-15T07:42:36.763Z,8.57
2022-11-15T07:45:03.363Z,15.60
2022-11-15T07:47:29.888Z,19.25
2022-11-15T07:49:56.319Z,18.48
2022-11-15T07:52:22.657Z,16.63
2022-11-15T07:54:49.059Z,13.32
2022-11-15T07:57:15.423Z,12.73
2022-11-15T07:59:41.816Z,10.80
2022-11-15T08:02:09.822Z,9.52
2022-11-15T08:04:36.307Z,8.07
2022-11-15T08:07:02.749Z,10.27
2022-11-15T08:09:29.142Z,8.20
2022-11-15T08:11:55.504Z,7.53
2022-11-15T08:14:23.011Z,7.10
2022-11-15T08:16:49.636Z,6.35
2022-11-15T08:19:16.214Z,6.82
2022-11-15T08:21:42.594Z,6.65
2022-11-15T08:24:10.461Z,5.88
2022-11-15T08:26:36.825Z,5.95
2022-11-15T08:29:03.228Z,6.30
2022-11-15T08:31:29.657Z,5.90
2022-11-15T08:33:56.064Z,5.72
2022-11-15T08:36:22.412Z,5.65
2022-11-15T08:38:48.847Z,6.38
2022-11-15T08:41:19.920Z,6.65
2022-11-15T08:43:46.241Z,6.70
2022-11-15T08:46:13.941Z,6.40
2022-11-15T08:48:40.355Z,7.40
2022-11-15T08:51:07.094Z,6.50
2022-11-15T08:53:34.620Z,6.22
2022-11-15T08:56:01.035Z,6.82
2022-11-15T08:58:27.371Z,6.18
2022-11-15T09:00:53.744Z,6.10
2022-11-15T09:03:20.095Z,6.22
2022-11-15T09:05:46.415Z,6.93
2022-11-15T09:08:45.587Z,6.30
2022-11-15T09:11:03.569Z,6.00
2022-11-15T09:13:29.984Z,6.15
2022-11-15T09:16:00.210Z,6.10
2022-11-15T09:18:26.712Z,6.15
2022-11-15T09:20:55.780Z,5.10
2022-11-15T09:23:22.144Z,5.70
2022-11-15T09:25:48.741Z,5.38
2022-11-15T09:28:15.286Z,5.60
2022-11-15T09:30:41.622Z,5.90
2022-11-15T09:33:11.901Z,5.10
2022-11-15T09:35:38.551Z,5.30
2022-11-15T09:38:05.259Z,5.03
2022-11-15T09:40:32.694Z,4.57
2022-11-15T09:43:08.419Z,4.07
2022-11-15T09:45:40.593Z,4.32
2022-11-15T09:48:19.242Z,3.97
2022-11-15T09:50:54.360Z,4.22
2022-11-15T09:54:30.309Z,4.38
2022-11-15T09:56:35.995Z,3.90
2022-11-15T09:59:34.758Z,4.15
2022-11-15T10:02:16.415Z,3.65
2022-11-15T10:04:43.085Z,3.58
2022-11-15T10:07:28.211Z,3.63
2022-11-15T10:10:09.790Z,4.00
2022-11-15T10:12:36.196Z,3.58
2022-11-15T10:15:05.383Z,3.10
2022-11-15T10:17:32.116Z,3.28
2022-11-15T10:20:07.457Z,3.42
2022-11-15T10:22:33.815Z,3.25
2022-11-15T10:25:20.624Z,2.90
2022-11-15T10:28:02.120Z,3.10
2022-11-15T10:30:33.604Z,2.88
2022-11-15T10:33:09.391Z,2.78
2022-11-15T10:35:35.786Z,2.60
2022-11-15T10:38:12.194Z,2.50
2022-11-15T10:40:39.664Z,2.70
2022-11-15T10:43:06.111Z,2.72
2022-11-15T10:45:33.459Z,2.15
2022-11-15T10:48:15.169Z,2.25
2022-11-15T10:50:42.853Z,2.45
2022-11-15T10:53:23.724Z,2.75
2022-11-15T10:55:51.564Z,2.47
2022-11-15T10:58:36.827Z,2.28
2022-11-15T11:01:10.474Z,2.08
2022-11-15T11:03:40.896Z,2.47
2022-11-15T11:06:17.986Z,1.90
2022-11-15T11:09:01.313Z,2.17
2022-11-15T11:11:47.989Z,2.10
2022-11-15T11:14:18.132Z,1.70
2022-11-15T11:16:48.589Z,2.28
2022-11-15T11:19:14.898Z,1.80
2022-11-15T11:21:41.218Z,2.00
2022-11-15T11:24:33.953Z,2.13
2022-11-15T11:27:00.255Z,2.17
2022-11-15T11:29:32.640Z,2.10
2022-11-15T11:31:59.000Z,2.00
2022-11-15T11:34:34.416Z,2.08
2022-11-15T11:39:46.095Z,1.98
2022-11-15T11:42:35.759Z,1.75
2022-11-15T11:45:20.888Z,1.60
2022-11-15T11:48:05.819Z,1.73
2022-11-15T11:50:33.209Z,1.60
2022-11-15T11:53:04.299Z,1.60
2022-11-15T11:55:33.976Z,1.50
2022-11-15T11:58:06.313Z,1.42
2022-11-15T12:00:35.218Z,1.88
2022-11-15T12:03:17.013Z,1.50
2022-11-15T12:05:49.938Z,1.58
2022-11-15T12:08:16.251Z,1.55
2022-11-15T12:10:45.250Z,1.58
2022-11-15T12:13:16.159Z,1.60
2022-11-15T12:16:01.462Z,1.42
2022-11-15T12:18:29.463Z,2.30
2022-11-15T12:20:58.382Z,2.00
2022-11-15T12:23:29.817Z,1.50
2022-11-15T12:26:08.183Z,1.70
2022-11-15T12:29:06.409Z,1.50
2022-11-15T12:31:41.990Z,1.50
2022-11-15T12:34:14.331Z,1.60
2022-11-15T12:36:42.546Z,1.80
2022-11-15T12:39:09.994Z,1.48
2022-11-15T12:41:37.732Z,1.60
2022-11-15T12:44:04.879Z,1.83
2022-11-15T12:46:31.207Z,1.70
2022-11-15T12:49:09.133Z,1.80
2022-11-15T12:51:44.790Z,1.55
2022-11-15T13:01:34.285Z,1.60
2022-11-15T13:04:09.579Z,1.67
2022-11-15T13:06:59.359Z,1.52
2022-11-15T13:09:34.783Z,1.48
2022-11-15T13:12:05.484Z,1.60
2022-11-15T13:14:38.037Z,1.33
2022-11-15T13:17:13.926Z,1.40
2022-11-15T13:19:40.342Z,1.40
2022-11-15T13:22:29.129Z,1.40
2022-11-15T13:24:56.169Z,1.48
2022-11-15T13:27:22.904Z,1.60
2022-11-15T13:29:49.353Z,1.92
2022-11-15T13:32:16.874Z,1.60
2022-11-15T13:34:52.752Z,1.60
2022-11-15T13:37:22.241Z,1.70
2022-11-15T13:39:49.147Z,1.50
2022-11-15T13:42:16.518Z,1.67
2022-11-15T13:44:56.228Z,1.40
2022-11-15T13:47:22.735Z,2.10
2022-11-15T13:49:49.114Z,2.08
2022-11-15T13:52:17.398Z,2.33
2022-11-15T13:55:04.261Z,2.45
2022-11-15T13:57:35.471Z,2.03
2022-11-15T14:00:03.789Z,2.33
2022-11-15T14:02:31.734Z,2.33
2022-11-15T14:05:01.020Z,2.20
2022-11-15T14:07:28.934Z,2.42
2022-11-15T14:09:55.415Z,2.08
2022-11-15T14:12:28.036Z,2.40
2022-11-15T14:14:54.433Z,2.03
2022-11-15T14:17:45.643Z,2.03
2022-11-15T14:20:29.422Z,1.77
2022-11-15T14:22:57.274Z,2.00
2022-11-15T14:25:24.779Z,2.08
2022-11-15T14:28:10.041Z,2.13
2022-11-15T14:30:36.511Z,2.53
2022-11-15T14:33:03.871Z,2.40
2022-11-15T14:35:30.232Z,2.33
2022-11-15T14:37:56.607Z,2.40
2022-11-15T14:40:23.008Z,3.03
2022-11-15T14:42:50.002Z,2.85
2022-11-15T14:45:17.545Z,2.33
2022-11-15T14:47:44.159Z,2.95
2022-11-15T14:50:14.183Z,3.00
2022-11-15T14:52:40.838Z,2.88
2022-11-15T14:55:15.837Z,3.00
2022-11-15T14:57:42.169Z,3.17
2022-11-15T15:00:09.869Z,2.85
2022-11-15T15:02:36.519Z,2.53
2022-11-15T15:05:12.161Z,3.05
2022-11-15T15:10:37.577Z,2.72
2022-11-15T15:12:51.939Z,3.17
2022-11-15T15:15:24.603Z,3.38
2022-11-15T15:17:50.944Z,3.28
2022-11-15T15:20:17.586Z,3.35
2022-11-15T15:22:44.071Z,3.25
2022-11-15T15:25:28.453Z,3.47
2022-11-15T15:27:55.529Z,4.30
2022-11-15T15:30:22.798Z,3.65
2022-11-15T15:32:49.243Z,3.40
2022-11-15T15:35:16.268Z,3.75
2022-11-15T15:37:43.178Z,3.78
2022-11-15T15:40:19.553Z,3.83
2022-11-15T15:42:45.920Z,3.55
2022-11-15T15:45:12.530Z,4.00
2022-11-15T15:47:39.448Z,4.32
2022-11-15T15:50:15.484Z,4.25
2022-11-15T15:52:41.973Z,3.92
2022-11-15T15:55:08.619Z,4.20
2022-11-15T15:57:34.981Z,3.95
2022-11-15T16:00:01.421Z,4.40
2022-11-15T16:02:27.794Z,4.20
2022-11-15T16:04:54.228Z,4.18
2022-11-15T16:07:23.109Z,4.18
2022-11-15T16:10:01.754Z,4.47
2022-11-15T16:12:28.765Z,4.40
2022-11-15T16:14:55.150Z,3.97
2022-11-15T16:17:22.298Z,4.63
2022-11-15T16:19:48.714Z,4.85
2022-11-15T16:22:15.114Z,5.15
2022-11-15T16:24:41.506Z,5.00
2022-11-15T16:27:13.546Z,4.25
2022-11-15T16:29:39.897Z,3.92
2022-11-15T16:32:06.289Z,4.45
2022-11-15T16:34:37.271Z,4.68
2022-11-15T16:37:07.248Z,5.07
2022-11-15T16:39:33.613Z,4.60
2022-11-15T16:42:00.598Z,4.72
2022-11-15T16:44:27.152Z,4.40
2022-11-15T16:46:53.591Z,4.55
2022-11-15T16:49:20.748Z,4.30
2022-11-15T16:51:47.800Z,4.55
2022-11-15T16:54:14.552Z,5.22
2022-11-15T16:56:41.260Z,5.57
2022-11-15T16:59:07.955Z,4.78
2022-11-15T17:01:35.545Z,4.97
2022-11-15T17:04:12.579Z,4.82
2022-11-15T17:06:40.826Z,5.30
2022-11-15T17:09:11.175Z,4.95
2022-11-15T17:11:37.493Z,4.80
2022-11-15T17:14:03.890Z,5.72
2022-11-15T17:16:30.284Z,4.70
2022-11-15T17:18:56.794Z,5.18
2022-11-15T17:21:23.279Z,5.05
2022-11-15T17:23:49.656Z,6.10
2022-11-15T17:26:34.979Z,5.50
2022-11-15T17:29:04.427Z,5.40
2022-11-15T17:31:33.587Z,4.75
2022-11-15T17:34:03.420Z,5.10
2022-11-15T17:36:29.878Z,3.78
2022-11-15T17:38:59.503Z,4.78
2022-11-15T17:41:26.678Z,5.57
2022-11-15T17:43:53.399Z,5.25
2022-11-15T17:46:21.094Z,5.47
2022-11-15T17:48:48.254Z,5.65
2022-11-15T17:51:15.944Z,5.55
2022-11-15T17:53:43.412Z,5.40
2022-11-15T17:56:11.433Z,5.70
2022-11-15T17:58:38.172Z,6.88
2022-11-15T18:01:07.848Z,7.10
2022-11-15T18:03:35.610Z,9.13
2022-11-15T18:06:02.239Z,10.55
2022-11-15T18:08:28.636Z,8.30
2022-11-15T18:11:05.472Z,7.43
2022-11-15T18:13:32.117Z,5.43
2022-11-15T18:16:02.548Z,5.65
2022-11-15T18:18:29.759Z,7.25
2022-11-15T18:21:02.088Z,6.15
2022-11-15T18:23:28.793Z,5.85
2022-11-15T18:25:55.192Z,6.53
2022-11-15T18:28:22.463Z,6.40
2022-11-15T18:30:49.162Z,6.32
2022-11-15T18:33:15.609Z,6.53
2022-11-15T18:35:42.021Z,6.32
2022-11-15T18:38:08.426Z,6.07
2022-11-15T18:40:35.406Z,5.70
2022-11-15T18:43:01.714Z,6.25
2022-11-15T18:45:28.067Z,6.00
2022-11-15T18:47:54.532Z,5.57
2022-11-15T18:50:20.879Z,5.20
2022-11-15T18:52:47.439Z,6.50
2022-11-15T18:55:14.417Z,6.72
2022-11-15T18:57:41.127Z,6.80
2022-11-15T19:00:09.399Z,6.63
2022-11-15T19:02:35.763Z,6.72
2022-11-15T19:05:02.299Z,6.38
2022-11-15T19:07:29.118Z,6.13
2022-11-15T19:09:56.145Z,6.15
2022-11-15T19:12:22.494Z,6.63
2022-11-15T19:14:48.906Z,6.47
2022-11-15T19:17:15.289Z,6.97
2022-11-15T19:19:41.671Z,6.70
2022-11-15T19:22:08.122Z,7.50
2022-11-15T19:24:34.470Z,7.07
2022-11-15T19:27:00.861Z,6.57
2022-11-15T19:29:27.280Z,6.35
2022-11-15T19:31:53.661Z,6.85
2022-11-15T19:34:20.044Z,7.22
2022-11-15T19:36:46.619Z,6.90
2022-11-15T19:39:13.990Z,6.55
2022-11-15T19:41:42.297Z,7.53
2022-11-15T19:44:09.089Z,7.07
2022-11-15T19:46:35.499Z,7.07
2022-11-15T19:49:01.937Z,7.70
2022-11-15T19:51:30.312Z,7.05
2022-11-15T19:54:03.514Z,7.38
2022-11-15T19:56:29.925Z,8.57
2022-11-15T19:58:56.555Z,8.63
2022-11-15T20:01:23.030Z,9.13
2022-11-15T20:03:50.257Z,7.70
2022-11-15T20:06:20.272Z,8.15
2022-11-15T20:08:47.823Z,7.78
2022-11-15T20:11:14.896Z,7.45
2022-11-15T20:13:41.982Z,7.55
2022-11-15T20:16:09.147Z,7.35
2022-11-15T20:18:36.263Z,7.53
2022-11-15T20:21:04.710Z,7.18
2022-11-15T20:23:31.091Z,7.22
2022-11-15T20:25:57.509Z,7.18
2022-11-15T20:28:25.479Z,6.47
2022-11-15T20:30:53.032Z,7.38
2022-11-15T20:33:19.978Z,7.35
2022-11-15T20:35:46.381Z,6.60
2022-11-15T20:38:12.789Z,7.15
2022-11-15T20:40:39.604Z,6.50
2022-11-15T20:43:06.375Z,6.18
2022-11-15T20:45:32.949Z,7.15
2022-11-15T20:47:59.410Z,7.53
2022-11-15T20:50:42.085Z,7.43
2022-11-15T20:53:09.916Z,7.05
2022-11-15T20:55:42.886Z,6.63
2022-11-15T20:58:09.610Z,7.18
2022-11-15T21:00:37.024Z,7.68
2022-11-15T21:03:06.776Z,7.68
2022-11-15T21:05:34.290Z,7.03
2022-11-15T21:08:00.734Z,7.32
2022-11-15T21:10:45.832Z,8.05
2022-11-15T21:13:12.264Z,6.83
2022-11-15T21:15:38.589Z,6.85
2022-11-15T21:18:05.191Z,7.38
2022-11-15T21:20:31.541Z,6.43
2022-11-15T21:22:57.886Z,6.85
2022-11-15T21:25:24.274Z,7.30
2022-11-15T21:27:50.659Z,6.70
2022-11-15T21:30:17.227Z,7.22
2022-11-15T21:32:44.426Z,7.65
2022-11-15T21:35:10.863Z,7.07
2022-11-15T21:37:37.215Z,8.00
2022-11-15T21:40:04.070Z,8.07
2022-11-15T21:42:30.401Z,7.63
2022-11-15T21:44:57.928Z,7.25
2022-11-15T21:47:24.332Z,7.85
2022-11-15T21:49:50.698Z,7.25
2022-11-15T21:52:17.123Z,7.13
2022-11-15T21:54:44.468Z,7.15
2022-11-15T21:57:11.113Z,7.53
2022-11-15T21:59:57.452Z,6.97
2022-11-15T22:02:23.797Z,6.40
2022-11-15T22:04:50.340Z,6.57
2022-11-15T22:07:16.800Z,6.53
2022-11-15T22:09:43.196Z,6.60
2022-11-15T22:12:09.584Z,6.40
2022-11-15T22:14:36.197Z,7.15
2022-11-15T22:17:02.642Z,7.00
2022-11-15T22:19:29.210Z,7.28
2022-11-15T22:21:55.639Z,6.68
2022-11-15T22:24:22.586Z,6.53
2022-11-15T22:26:49.000Z,6.43
2022-11-15T22:29:15.455Z,6.47
2022-11-15T22:31:41.897Z,6.78
2022-11-15T22:34:09.364Z,6.55
2022-11-15T22:36:52.363Z,6.63
2022-11-15T22:39:22.298Z,7.00
2022-11-15T22:41:49.164Z,7.80
2022-11-15T22:44:15.556Z,6.78
2022-11-15T22:46:42.045Z,7.00
2022-11-15T22:49:09.368Z,6.63
2022-11-15T22:51:35.829Z,6.97
2022-11-15T22:54:02.416Z,7.45
2022-11-15T22:56:28.801Z,6.50
2022-11-15T22:58:55.270Z,7.18
2022-11-15T23:01:22.086Z,7.03
2022-11-15T23:03:48.721Z,6.47
2022-11-15T23:06:15.222Z,6.82
2022-11-15T23:08:41.973Z,7.00
2022-11-15T23:11:30.350Z,7.75
2022-11-15T23:13:57.015Z,7.20
2022-11-15T23:16:23.846Z,7.35
2022-11-15T23:18:51.530Z,6.93
2022-11-15T23:21:39.420Z,6.40
2022-11-15T23:24:06.026Z,6.78
2022-11-15T23:26:32.458Z,6.95
2022-11-15T23:28:58.900Z,6.40
2022-11-15T23:31:44.242Z,7.03
2022-11-15T23:34:11.335Z,7.15
2022-11-15T23:36:37.769Z,6.82
2022-11-15T23:39:04.238Z,6.13
2022-11-15T23:41:30.689Z,6.50
2022-11-15T23:43:57.126Z,7.18
2022-11-15T23:46:23.559Z,6.68
2022-11-15T23:48:50.043Z,6.53
2022-11-15T23:51:16.521Z,6.70
2022-11-15T23:53:42.967Z,6.97
2022-11-15T23:56:10.982Z,7.03
2022-11-15T23:58:37.507Z,6.60
